sensor_id;sensor_type;location;lat;lon;timestamp;temperature;humidity
76897;SHT30;65856;52.178;21.176;2024-01-30T00:01:16;2.60;77.41
76897;SHT30;65856;52.178;21.176;2024-01-30T00:03:42;2.62;77.34
76897;SHT30;65856;52.178;21.176;2024-01-30T00:06:11;2.59;77.29
76897;SHT30;65856;52.178;21.176;2024-01-30T00:08:36;2.56;77.35
76897;SHT30;65856;52.178;21.176;2024-01-30T00:11:02;2.55;77.40
76897;SHT30;65856;52.178;21.176;2024-01-30T00:13:27;2.52;77.45
76897;SHT30;65856;52.178;21.176;2024-01-30T00:15:53;2.50;77.50
76897;SHT30;65856;52.178;21.176;2024-01-30T00:18:18;2.48;77.49
76897;SHT30;65856;52.178;21.176;2024-01-30T00:20:44;2.43;77.52
76897;SHT30;65856;52.178;21.176;2024-01-30T00:23:10;2.44;77.68
76897;SHT30;65856;52.178;21.176;2024-01-30T00:25:35;2.41;77.58
76897;SHT30;65856;52.178;21.176;2024-01-30T00:28:01;2.37;77.67
76897;SHT30;65856;52.178;21.176;2024-01-30T00:30:26;2.37;77.72
76897;SHT30;65856;52.178;21.176;2024-01-30T00:32:52;2.43;77.71
76897;SHT30;65856;52.178;21.176;2024-01-30T00:35:18;2.46;77.58
76897;SHT30;65856;52.178;21.176;2024-01-30T00:37:43;2.43;77.60
76897;SHT30;65856;52.178;21.176;2024-01-30T00:40:09;2.42;77.60
76897;SHT30;65856;52.178;21.176;2024-01-30T00:42:40;2.39;77.62
76897;SHT30;65856;52.178;21.176;2024-01-30T00:45:11;2.41;77.65
76897;SHT30;65856;52.178;21.176;2024-01-30T00:47:40;2.42;77.65
76897;SHT30;65856;52.178;21.176;2024-01-30T00:50:06;2.43;77.60
76897;SHT30;65856;52.178;21.176;2024-01-30T00:52:32;2.44;77.53
76897;SHT30;65856;52.178;21.176;2024-01-30T00:54:58;2.42;77.52
76897;SHT30;65856;52.178;21.176;2024-01-30T00:57:24;2.44;77.59
76897;SHT30;65856;52.178;21.176;2024-01-30T00:59:50;2.45;77.49
76897;SHT30;65856;52.178;21.176;2024-01-30T01:02:15;2.44;77.49
76897;SHT30;65856;52.178;21.176;2024-01-30T01:04:42;2.44;77.53
76897;SHT30;65856;52.178;21.176;2024-01-30T01:07:08;2.45;77.50
76897;SHT30;65856;52.178;21.176;2024-01-30T01:09:33;2.45;77.42
76897;SHT30;65856;52.178;21.176;2024-01-30T01:11:58;2.42;77.41
76897;SHT30;65856;52.178;21.176;2024-01-30T01:14:24;2.41;77.48
76897;SHT30;65856;52.178;21.176;2024-01-30T01:16:50;2.36;77.53
76897;SHT30;65856;52.178;21.176;2024-01-30T01:19:15;2.37;77.56
76897;SHT30;65856;52.178;21.176;2024-01-30T01:21:41;2.41;77.53
76897;SHT30;65856;52.178;21.176;2024-01-30T01:24:06;2.41;77.47
76897;SHT30;65856;52.178;21.176;2024-01-30T01:26:31;2.39;77.50
76897;SHT30;65856;52.178;21.176;2024-01-30T01:28:57;2.40;77.42
76897;SHT30;65856;52.178;21.176;2024-01-30T01:31:22;2.36;77.40
76897;SHT30;65856;52.178;21.176;2024-01-30T01:33:49;2.37;77.44
76897;SHT30;65856;52.178;21.176;2024-01-30T01:36:15;2.35;77.41
76897;SHT30;65856;52.178;21.176;2024-01-30T01:38:40;2.35;77.44
76897;SHT30;65856;52.178;21.176;2024-01-30T01:41:06;2.38;77.44
76897;SHT30;65856;52.178;21.176;2024-01-30T01:43:31;2.37;77.33
76897;SHT30;65856;52.178;21.176;2024-01-30T01:45:57;2.39;77.36
76897;SHT30;65856;52.178;21.176;2024-01-30T01:48:22;2.38;77.30
76897;SHT30;65856;52.178;21.176;2024-01-30T01:50:48;2.38;77.30
76897;SHT30;65856;52.178;21.176;2024-01-30T01:53:13;2.37;77.24
76897;SHT30;65856;52.178;21.176;2024-01-30T01:55:40;2.35;77.23
76897;SHT30;65856;52.178;21.176;2024-01-30T01:58:06;2.34;77.23
76897;SHT30;65856;52.178;21.176;2024-01-30T02:00:33;2.33;77.31
76897;SHT30;65856;52.178;21.176;2024-01-30T02:03:01;2.34;77.22
76897;SHT30;65856;52.178;21.176;2024-01-30T02:05:28;2.29;77.23
76897;SHT30;65856;52.178;21.176;2024-01-30T02:07:53;2.28;77.30
76897;SHT30;65856;52.178;21.176;2024-01-30T02:10:19;2.28;77.29
76897;SHT30;65856;52.178;21.176;2024-01-30T02:12:44;2.31;77.27
76897;SHT30;65856;52.178;21.176;2024-01-30T02:15:13;2.29;77.25
76897;SHT30;65856;52.178;21.176;2024-01-30T02:17:39;2.27;77.30
76897;SHT30;65856;52.178;21.176;2024-01-30T02:20:04;2.29;77.24
76897;SHT30;65856;52.178;21.176;2024-01-30T02:22:30;2.34;77.20
76897;SHT30;65856;52.178;21.176;2024-01-30T02:24:58;2.36;77.13
76897;SHT30;65856;52.178;21.176;2024-01-30T02:27:24;2.34;77.05
76897;SHT30;65856;52.178;21.176;2024-01-30T02:29:49;2.33;77.10
76897;SHT30;65856;52.178;21.176;2024-01-30T02:32:14;2.29;77.03
76897;SHT30;65856;52.178;21.176;2024-01-30T02:34:40;2.28;77.08
76897;SHT30;65856;52.178;21.176;2024-01-30T02:37:05;2.26;77.16
76897;SHT30;65856;52.178;21.176;2024-01-30T02:39:30;2.30;77.17
76897;SHT30;65856;52.178;21.176;2024-01-30T02:41:56;2.25;77.10
76897;SHT30;65856;52.178;21.176;2024-01-30T02:44:22;2.21;77.20
76897;SHT30;65856;52.178;21.176;2024-01-30T02:46:47;2.19;77.23
76897;SHT30;65856;52.178;21.176;2024-01-30T02:49:12;2.16;77.31
76897;SHT30;65856;52.178;21.176;2024-01-30T02:51:38;2.16;77.32
76897;SHT30;65856;52.178;21.176;2024-01-30T02:54:03;2.15;77.37
76897;SHT30;65856;52.178;21.176;2024-01-30T02:56:29;2.14;77.39
76897;SHT30;65856;52.178;21.176;2024-01-30T02:58:54;2.10;77.44
76897;SHT30;65856;52.178;21.176;2024-01-30T03:01:19;2.07;77.45
76897;SHT30;65856;52.178;21.176;2024-01-30T03:03:45;2.06;77.47
76897;SHT30;65856;52.178;21.176;2024-01-30T03:06:10;2.03;77.52
76897;SHT30;65856;52.178;21.176;2024-01-30T03:08:35;2.01;77.58
76897;SHT30;65856;52.178;21.176;2024-01-30T03:11:01;2.02;77.58
76897;SHT30;65856;52.178;21.176;2024-01-30T03:13:26;2.00;77.58
76897;SHT30;65856;52.178;21.176;2024-01-30T03:15:52;1.98;77.65
76897;SHT30;65856;52.178;21.176;2024-01-30T03:18:17;1.97;77.66
76897;SHT30;65856;52.178;21.176;2024-01-30T03:20:43;1.94;77.70
76897;SHT30;65856;52.178;21.176;2024-01-30T03:23:08;1.97;77.70
76897;SHT30;65856;52.178;21.176;2024-01-30T03:25:34;2.01;77.69
76897;SHT30;65856;52.178;21.176;2024-01-30T03:27:59;2.04;77.62
76897;SHT30;65856;52.178;21.176;2024-01-30T03:30:24;2.09;77.52
76897;SHT30;65856;52.178;21.176;2024-01-30T03:32:50;2.10;77.39
76897;SHT30;65856;52.178;21.176;2024-01-30T03:35:15;2.13;77.40
76897;SHT30;65856;52.178;21.176;2024-01-30T03:37:40;2.15;77.30
76897;SHT30;65856;52.178;21.176;2024-01-30T03:40:06;2.15;77.24
76897;SHT30;65856;52.178;21.176;2024-01-30T03:42:32;2.14;77.28
76897;SHT30;65856;52.178;21.176;2024-01-30T03:44:58;2.14;77.24
76897;SHT30;65856;52.178;21.176;2024-01-30T03:47:23;2.07;77.21
76897;SHT30;65856;52.178;21.176;2024-01-30T03:49:48;2.04;77.30
76897;SHT30;65856;52.178;21.176;2024-01-30T03:52:14;2.03;77.31
76897;SHT30;65856;52.178;21.176;2024-01-30T03:54:39;2.02;77.36
76897;SHT30;65856;52.178;21.176;2024-01-30T03:57:05;2.03;77.39
76897;SHT30;65856;52.178;21.176;2024-01-30T03:59:30;2.05;77.35
76897;SHT30;65856;52.178;21.176;2024-01-30T04:01:56;2.02;77.23
76897;SHT30;65856;52.178;21.176;2024-01-30T04:04:21;1.97;77.26
76897;SHT30;65856;52.178;21.176;2024-01-30T04:06:47;1.94;77.33
76897;SHT30;65856;52.178;21.176;2024-01-30T04:09:12;1.95;77.35
76897;SHT30;65856;52.178;21.176;2024-01-30T04:11:41;1.96;77.39
76897;SHT30;65856;52.178;21.176;2024-01-30T04:14:07;1.99;77.36
76897;SHT30;65856;52.178;21.176;2024-01-30T04:16:33;2.02;77.24
76897;SHT30;65856;52.178;21.176;2024-01-30T04:18:59;1.95;77.30
76897;SHT30;65856;52.178;21.176;2024-01-30T04:21:25;1.90;77.42
76897;SHT30;65856;52.178;21.176;2024-01-30T04:23:50;1.87;77.42
76897;SHT30;65856;52.178;21.176;2024-01-30T04:26:17;1.83;77.55
76897;SHT30;65856;52.178;21.176;2024-01-30T04:28:45;1.77;77.57
76897;SHT30;65856;52.178;21.176;2024-01-30T04:31:11;1.74;77.70
76897;SHT30;65856;52.178;21.176;2024-01-30T04:33:37;1.74;77.76
76897;SHT30;65856;52.178;21.176;2024-01-30T04:36:02;1.75;77.80
76897;SHT30;65856;52.178;21.176;2024-01-30T04:38:28;1.75;77.77
76897;SHT30;65856;52.178;21.176;2024-01-30T04:40:54;1.76;77.81
76897;SHT30;65856;52.178;21.176;2024-01-30T04:43:19;1.77;77.79
76897;SHT30;65856;52.178;21.176;2024-01-30T04:45:45;1.75;77.75
76897;SHT30;65856;52.178;21.176;2024-01-30T04:48:10;1.76;77.77
76897;SHT30;65856;52.178;21.176;2024-01-30T04:50:36;1.78;77.79
76897;SHT30;65856;52.178;21.176;2024-01-30T04:53:01;1.75;77.76
76897;SHT30;65856;52.178;21.176;2024-01-30T04:55:27;1.72;77.77
76897;SHT30;65856;52.178;21.176;2024-01-30T04:57:52;1.72;77.80
76897;SHT30;65856;52.178;21.176;2024-01-30T05:00:18;1.70;77.80
76897;SHT30;65856;52.178;21.176;2024-01-30T05:02:43;1.68;77.83
76897;SHT30;65856;52.178;21.176;2024-01-30T05:05:09;1.72;77.83
76897;SHT30;65856;52.178;21.176;2024-01-30T05:07:34;1.73;77.80
76897;SHT30;65856;52.178;21.176;2024-01-30T05:09:59;1.72;77.76
76897;SHT30;65856;52.178;21.176;2024-01-30T05:12:25;1.68;77.73
76897;SHT30;65856;52.178;21.176;2024-01-30T05:14:51;1.65;77.80
76897;SHT30;65856;52.178;21.176;2024-01-30T05:17:16;1.65;77.83
76897;SHT30;65856;52.178;21.176;2024-01-30T05:19:43;1.65;77.84
76897;SHT30;65856;52.178;21.176;2024-01-30T05:22:09;1.68;77.83
76897;SHT30;65856;52.178;21.176;2024-01-30T05:24:35;1.64;77.82
76897;SHT30;65856;52.178;21.176;2024-01-30T05:27:02;1.71;77.83
76897;SHT30;65856;52.178;21.176;2024-01-30T05:29:27;1.74;77.73
76897;SHT30;65856;52.178;21.176;2024-01-30T05:31:52;1.70;77.70
76897;SHT30;65856;52.178;21.176;2024-01-30T05:34:18;1.62;77.72
76897;SHT30;65856;52.178;21.176;2024-01-30T05:36:43;1.60;77.86
76897;SHT30;65856;52.178;21.176;2024-01-30T05:39:09;1.59;77.85
76897;SHT30;65856;52.178;21.176;2024-01-30T05:41:35;1.57;77.90
76897;SHT30;65856;52.178;21.176;2024-01-30T05:44:00;1.53;77.96
76897;SHT30;65856;52.178;21.176;2024-01-30T05:46:26;1.54;77.94
76897;SHT30;65856;52.178;21.176;2024-01-30T05:48:51;1.54;78.00
76897;SHT30;65856;52.178;21.176;2024-01-30T05:51:16;1.55;77.90
76897;SHT30;65856;52.178;21.176;2024-01-30T05:53:42;1.55;77.89
76897;SHT30;65856;52.178;21.176;2024-01-30T05:56:07;1.55;77.90
76897;SHT30;65856;52.178;21.176;2024-01-30T05:58:32;1.54;77.86
76897;SHT30;65856;52.178;21.176;2024-01-30T06:00:58;1.54;77.90
76897;SHT30;65856;52.178;21.176;2024-01-30T06:03:23;1.55;77.83
76897;SHT30;65856;52.178;21.176;2024-01-30T06:05:49;1.55;77.83
76897;SHT30;65856;52.178;21.176;2024-01-30T06:08:14;1.57;77.82
76897;SHT30;65856;52.178;21.176;2024-01-30T06:10:40;1.60;77.74
76897;SHT30;65856;52.178;21.176;2024-01-30T06:13:05;1.62;77.68
76897;SHT30;65856;52.178;21.176;2024-01-30T06:15:31;1.57;77.61
76897;SHT30;65856;52.178;21.176;2024-01-30T06:17:57;1.53;77.70
76897;SHT30;65856;52.178;21.176;2024-01-30T06:20:23;1.51;77.73
76897;SHT30;65856;52.178;21.176;2024-01-30T06:22:49;1.54;77.75
76897;SHT30;65856;52.178;21.176;2024-01-30T06:25:14;1.56;77.68
76897;SHT30;65856;52.178;21.176;2024-01-30T06:27:39;1.59;77.61
76897;SHT30;65856;52.178;21.176;2024-01-30T06:30:05;1.58;77.60
76897;SHT30;65856;52.178;21.176;2024-01-30T06:32:31;1.58;77.57
76897;SHT30;65856;52.178;21.176;2024-01-30T06:34:59;1.59;77.61
76897;SHT30;65856;52.178;21.176;2024-01-30T06:37:25;1.62;77.51
76897;SHT30;65856;52.178;21.176;2024-01-30T06:39:51;1.62;77.50
76897;SHT30;65856;52.178;21.176;2024-01-30T06:42:17;1.60;77.43
76897;SHT30;65856;52.178;21.176;2024-01-30T06:44:43;1.56;77.51
76897;SHT30;65856;52.178;21.176;2024-01-30T06:47:09;1.59;77.51
76897;SHT30;65856;52.178;21.176;2024-01-30T06:49:34;1.58;77.50
76897;SHT30;65856;52.178;21.176;2024-01-30T06:52:03;1.57;77.52
76897;SHT30;65856;52.178;21.176;2024-01-30T06:54:30;1.54;77.55
76897;SHT30;65856;52.178;21.176;2024-01-30T06:56:56;1.57;77.60
76897;SHT30;65856;52.178;21.176;2024-01-30T06:59:21;1.71;77.53
76897;SHT30;65856;52.178;21.176;2024-01-30T07:01:47;2.09;77.19
76897;SHT30;65856;52.178;21.176;2024-01-30T07:04:12;2.67;76.46
76897;SHT30;65856;52.178;21.176;2024-01-30T07:06:37;3.12;75.36
76897;SHT30;65856;52.178;21.176;2024-01-30T07:09:03;3.30;74.78
76897;SHT30;65856;52.178;21.176;2024-01-30T07:11:28;3.54;74.49
76897;SHT30;65856;52.178;21.176;2024-01-30T07:13:54;4.05;74.42
76897;SHT30;65856;52.178;21.176;2024-01-30T07:16:19;4.53;73.27
76897;SHT30;65856;52.178;21.176;2024-01-30T07:18:44;4.96;72.48
76897;SHT30;65856;52.178;21.176;2024-01-30T07:21:10;5.47;71.56
76897;SHT30;65856;52.178;21.176;2024-01-30T07:23:36;6.25;70.27
76897;SHT30;65856;52.178;21.176;2024-01-30T07:26:04;7.11;68.59
76897;SHT30;65856;52.178;21.176;2024-01-30T07:28:33;7.82;66.83
76897;SHT30;65856;52.178;21.176;2024-01-30T07:30:59;8.37;65.25
76897;SHT30;65856;52.178;21.176;2024-01-30T07:33:25;8.89;63.08
76897;SHT30;65856;52.178;21.176;2024-01-30T07:35:51;9.34;62.16
76897;SHT30;65856;52.178;21.176;2024-01-30T07:38:17;9.80;60.71
76897;SHT30;65856;52.178;21.176;2024-01-30T07:40:43;10.13;59.93
76897;SHT30;65856;52.178;21.176;2024-01-30T07:43:08;10.27;58.94
76897;SHT30;65856;52.178;21.176;2024-01-30T07:45:34;9.84;58.26
76897;SHT30;65856;52.178;21.176;2024-01-30T07:47:59;9.13;58.84
76897;SHT30;65856;52.178;21.176;2024-01-30T07:50:25;8.71;59.99
76897;SHT30;65856;52.178;21.176;2024-01-30T07:52:51;8.53;60.11
76897;SHT30;65856;52.178;21.176;2024-01-30T07:55:19;8.36;60.05
76897;SHT30;65856;52.178;21.176;2024-01-30T07:57:49;8.21;59.97
76897;SHT30;65856;52.178;21.176;2024-01-30T08:00:18;8.14;60.24
76897;SHT30;65856;52.178;21.176;2024-01-30T08:02:45;8.09;60.31
76897;SHT30;65856;52.178;21.176;2024-01-30T08:05:11;8.04;59.84
76897;SHT30;65856;52.178;21.176;2024-01-30T08:07:36;7.95;60.12
76897;SHT30;65856;52.178;21.176;2024-01-30T08:10:02;7.92;59.92
76897;SHT30;65856;52.178;21.176;2024-01-30T08:12:28;7.77;59.27
76897;SHT30;65856;52.178;21.176;2024-01-30T08:14:53;7.60;59.62
76897;SHT30;65856;52.178;21.176;2024-01-30T08:17:18;7.52;60.01
76897;SHT30;65856;52.178;21.176;2024-01-30T08:19:44;7.57;60.39
76897;SHT30;65856;52.178;21.176;2024-01-30T08:22:09;7.59;60.01
76897;SHT30;65856;52.178;21.176;2024-01-30T08:24:37;7.64;60.32
76897;SHT30;65856;52.178;21.176;2024-01-30T08:27:02;7.71;60.10
76897;SHT30;65856;52.178;21.176;2024-01-30T08:29:30;7.73;59.57
76897;SHT30;65856;52.178;21.176;2024-01-30T08:31:55;7.73;59.90
76897;SHT30;65856;52.178;21.176;2024-01-30T08:34:20;7.79;59.80
76897;SHT30;65856;52.178;21.176;2024-01-30T08:36:46;7.81;59.47
76897;SHT30;65856;52.178;21.176;2024-01-30T08:39:11;7.84;59.49
76897;SHT30;65856;52.178;21.176;2024-01-30T08:41:37;7.95;59.68
76897;SHT30;65856;52.178;21.176;2024-01-30T08:44:02;8.06;59.49
76897;SHT30;65856;52.178;21.176;2024-01-30T08:46:29;8.13;59.19
76897;SHT30;65856;52.178;21.176;2024-01-30T08:48:55;8.15;59.06
76897;SHT30;65856;52.178;21.176;2024-01-30T08:51:21;8.18;58.84
76897;SHT30;65856;52.178;21.176;2024-01-30T08:53:46;8.23;58.98
76897;SHT30;65856;52.178;21.176;2024-01-30T08:56:12;8.29;58.42
76897;SHT30;65856;52.178;21.176;2024-01-30T08:58:38;8.32;58.77
76897;SHT30;65856;52.178;21.176;2024-01-30T09:01:04;8.42;58.77
76897;SHT30;65856;52.178;21.176;2024-01-30T09:03:31;8.47;58.09
76897;SHT30;65856;52.178;21.176;2024-01-30T09:05:56;8.48;57.98
76897;SHT30;65856;52.178;21.176;2024-01-30T09:08:22;8.50;57.86
76897;SHT30;65856;52.178;21.176;2024-01-30T09:10:47;8.52;57.50
76897;SHT30;65856;52.178;21.176;2024-01-30T09:13:14;8.47;57.69
76897;SHT30;65856;52.178;21.176;2024-01-30T09:15:40;8.54;58.10
76897;SHT30;65856;52.178;21.176;2024-01-30T09:18:06;8.68;58.19
76897;SHT30;65856;52.178;21.176;2024-01-30T09:20:32;8.79;57.60
76897;SHT30;65856;52.178;21.176;2024-01-30T09:22:57;8.80;56.97
76897;SHT30;65856;52.178;21.176;2024-01-30T09:25:22;8.77;57.51
76897;SHT30;65856;52.178;21.176;2024-01-30T09:27:48;8.82;57.40
76897;SHT30;65856;52.178;21.176;2024-01-30T09:30:14;8.82;57.11
76897;SHT30;65856;52.178;21.176;2024-01-30T09:32:40;8.85;57.19
76897;SHT30;65856;52.178;21.176;2024-01-30T09:35:05;8.85;56.70
76897;SHT30;65856;52.178;21.176;2024-01-30T09:37:31;8.86;57.26
76897;SHT30;65856;52.178;21.176;2024-01-30T09:39:57;8.89;56.74
76897;SHT30;65856;52.178;21.176;2024-01-30T09:45:02;8.73;55.76
76897;SHT30;65856;52.178;21.176;2024-01-30T09:47:34;8.63;56.41
76897;SHT30;65856;52.178;21.176;2024-01-30T09:50:08;8.63;56.56
76897;SHT30;65856;52.178;21.176;2024-01-30T09:52:34;8.63;56.91
76897;SHT30;65856;52.178;21.176;2024-01-30T09:55:00;8.66;56.72
76897;SHT30;65856;52.178;21.176;2024-01-30T09:57:26;8.66;56.56
76897;SHT30;65856;52.178;21.176;2024-01-30T09:59:52;8.65;56.61
76897;SHT30;65856;52.178;21.176;2024-01-30T10:02:19;8.62;56.15
76897;SHT30;65856;52.178;21.176;2024-01-30T10:04:49;8.54;56.05
76897;SHT30;65856;52.178;21.176;2024-01-30T10:07:16;8.47;56.38
76897;SHT30;65856;52.178;21.176;2024-01-30T10:09:42;8.46;56.71
76897;SHT30;65856;52.178;21.176;2024-01-30T10:12:11;8.45;56.72
76897;SHT30;65856;52.178;21.176;2024-01-30T10:14:37;8.46;56.76
76897;SHT30;65856;52.178;21.176;2024-01-30T10:17:04;8.48;56.46
76897;SHT30;65856;52.178;21.176;2024-01-30T10:19:30;8.44;56.23
76897;SHT30;65856;52.178;21.176;2024-01-30T10:21:56;8.41;56.33
76897;SHT30;65856;52.178;21.176;2024-01-30T10:24:26;8.44;56.67
76897;SHT30;65856;52.178;21.176;2024-01-30T10:26:53;8.47;56.64
76897;SHT30;65856;52.178;21.176;2024-01-30T10:29:18;8.53;56.80
76897;SHT30;65856;52.178;21.176;2024-01-30T10:31:44;8.57;56.75
76897;SHT30;65856;52.178;21.176;2024-01-30T10:34:09;8.62;56.81
76897;SHT30;65856;52.178;21.176;2024-01-30T10:36:40;8.68;56.61
76897;SHT30;65856;52.178;21.176;2024-01-30T10:39:08;8.74;56.84
76897;SHT30;65856;52.178;21.176;2024-01-30T10:41:38;8.82;56.57
76897;SHT30;65856;52.178;21.176;2024-01-30T10:44:09;8.83;55.90
76897;SHT30;65856;52.178;21.176;2024-01-30T10:46:37;8.80;56.15
76897;SHT30;65856;52.178;21.176;2024-01-30T10:49:03;8.86;56.44
76897;SHT30;65856;52.178;21.176;2024-01-30T10:51:30;8.94;55.90
76897;SHT30;65856;52.178;21.176;2024-01-30T10:53:57;8.98;55.70
76897;SHT30;65856;52.178;21.176;2024-01-30T10:56:23;9.03;55.58
76897;SHT30;65856;52.178;21.176;2024-01-30T10:58:50;9.05;55.13
76897;SHT30;65856;52.178;21.176;2024-01-30T11:01:18;9.08;55.09
76897;SHT30;65856;52.178;21.176;2024-01-30T11:03:48;9.09;54.83
76897;SHT30;65856;52.178;21.176;2024-01-30T11:06:16;9.15;54.92
76897;SHT30;65856;52.178;21.176;2024-01-30T11:08:43;9.20;55.07
76897;SHT30;65856;52.178;21.176;2024-01-30T11:11:10;9.23;55.11
76897;SHT30;65856;52.178;21.176;2024-01-30T11:13:36;9.27;54.59
76897;SHT30;65856;52.178;21.176;2024-01-30T11:16:04;9.28;54.45
76897;SHT30;65856;52.178;21.176;2024-01-30T11:18:31;9.28;54.44
76897;SHT30;65856;52.178;21.176;2024-01-30T11:20:59;9.24;54.13
76897;SHT30;65856;52.178;21.176;2024-01-30T11:23:26;9.25;54.68
76897;SHT30;65856;52.178;21.176;2024-01-30T11:25:56;9.32;54.51
76897;SHT30;65856;52.178;21.176;2024-01-30T11:28:22;9.32;54.12
76897;SHT30;65856;52.178;21.176;2024-01-30T11:30:48;9.34;54.16
76897;SHT30;65856;52.178;21.176;2024-01-30T11:33:15;9.33;53.77
76897;SHT30;65856;52.178;21.176;2024-01-30T11:35:56;9.34;53.54
76897;SHT30;65856;52.178;21.176;2024-01-30T11:38:27;9.30;53.02
76897;SHT30;65856;52.178;21.176;2024-01-30T11:40:53;9.25;53.41
76897;SHT30;65856;52.178;21.176;2024-01-30T11:43:21;9.29;53.77
76897;SHT30;65856;52.178;21.176;2024-01-30T11:45:47;9.32;53.93
76897;SHT30;65856;52.178;21.176;2024-01-30T11:48:13;9.33;53.97
76897;SHT30;65856;52.178;21.176;2024-01-30T11:50:38;9.29;53.56
76897;SHT30;65856;52.178;21.176;2024-01-30T11:53:05;9.19;53.62
76897;SHT30;65856;52.178;21.176;2024-01-30T11:55:30;9.11;53.66
76897;SHT30;65856;52.178;21.176;2024-01-30T11:57:56;9.05;53.99
76897;SHT30;65856;52.178;21.176;2024-01-30T12:00:23;9.05;54.24
76897;SHT30;65856;52.178;21.176;2024-01-30T12:02:50;9.06;54.36
76897;SHT30;65856;52.178;21.176;2024-01-30T12:05:20;9.04;53.93
76897;SHT30;65856;52.178;21.176;2024-01-30T12:07:47;9.02;54.11
76897;SHT30;65856;52.178;21.176;2024-01-30T12:10:12;8.99;54.10
76897;SHT30;65856;52.178;21.176;2024-01-30T12:12:43;8.97;54.30
76897;SHT30;65856;52.178;21.176;2024-01-30T12:15:11;8.98;54.45
76897;SHT30;65856;52.178;21.176;2024-01-30T12:17:37;8.96;54.36
76897;SHT30;65856;52.178;21.176;2024-01-30T12:20:06;8.93;54.50
76897;SHT30;65856;52.178;21.176;2024-01-30T12:22:41;8.92;54.19
76897;SHT30;65856;52.178;21.176;2024-01-30T12:25:09;8.89;54.36
76897;SHT30;65856;52.178;21.176;2024-01-30T12:27:37;8.86;53.96
76897;SHT30;65856;52.178;21.176;2024-01-30T12:30:10;8.84;54.20
76897;SHT30;65856;52.178;21.176;2024-01-30T12:32:49;8.84;54.30
76897;SHT30;65856;52.178;21.176;2024-01-30T12:35:19;8.85;54.12
76897;SHT30;65856;52.178;21.176;2024-01-30T12:37:46;8.82;54.18
76897;SHT30;65856;52.178;21.176;2024-01-30T12:40:14;8.80;54.21
76897;SHT30;65856;52.178;21.176;2024-01-30T12:42:43;8.79;54.21
76897;SHT30;65856;52.178;21.176;2024-01-30T12:45:13;8.79;54.19
76897;SHT30;65856;52.178;21.176;2024-01-30T12:47:40;8.77;54.39
76897;SHT30;65856;52.178;21.176;2024-01-30T12:50:06;8.79;54.96
76897;SHT30;65856;52.178;21.176;2024-01-30T12:52:31;8.82;54.50
76897;SHT30;65856;52.178;21.176;2024-01-30T12:54:57;8.80;54.48
76897;SHT30;65856;52.178;21.176;2024-01-30T12:57:22;8.80;54.15
76897;SHT30;65856;52.178;21.176;2024-01-30T12:59:48;8.78;54.20
76897;SHT30;65856;52.178;21.176;2024-01-30T13:02:13;8.76;54.02
76897;SHT30;65856;52.178;21.176;2024-01-30T13:04:40;8.75;54.09
76897;SHT30;65856;52.178;21.176;2024-01-30T13:07:06;8.73;53.91
76897;SHT30;65856;52.178;21.176;2024-01-30T13:09:31;8.72;54.16
76897;SHT30;65856;52.178;21.176;2024-01-30T13:11:57;8.71;54.25
76897;SHT30;65856;52.178;21.176;2024-01-30T13:14:24;8.70;54.04
76897;SHT30;65856;52.178;21.176;2024-01-30T13:16:50;8.68;54.18
76897;SHT30;65856;52.178;21.176;2024-01-30T13:19:15;8.63;54.44
76897;SHT30;65856;52.178;21.176;2024-01-30T13:21:41;8.59;54.37
76897;SHT30;65856;52.178;21.176;2024-01-30T13:24:07;8.53;54.37
76897;SHT30;65856;52.178;21.176;2024-01-30T13:26:32;8.48;54.43
76897;SHT30;65856;52.178;21.176;2024-01-30T13:28:58;8.48;54.53
76897;SHT30;65856;52.178;21.176;2024-01-30T13:31:24;8.48;54.68
76897;SHT30;65856;52.178;21.176;2024-01-30T13:33:50;8.47;54.58
76897;SHT30;65856;52.178;21.176;2024-01-30T13:36:15;8.48;54.50
76897;SHT30;65856;52.178;21.176;2024-01-30T13:38:40;8.47;54.54
76897;SHT30;65856;52.178;21.176;2024-01-30T13:41:06;8.49;54.57
76897;SHT30;65856;52.178;21.176;2024-01-30T13:43:31;8.50;54.57
76897;SHT30;65856;52.178;21.176;2024-01-30T13:45:57;8.52;54.90
76897;SHT30;65856;52.178;21.176;2024-01-30T13:48:22;8.52;55.19
76897;SHT30;65856;52.178;21.176;2024-01-30T13:50:48;8.52;54.67
76897;SHT30;65856;52.178;21.176;2024-01-30T13:53:13;8.52;55.00
76897;SHT30;65856;52.178;21.176;2024-01-30T13:55:39;8.52;54.92
76897;SHT30;65856;52.178;21.176;2024-01-30T13:58:04;8.52;55.23
76897;SHT30;65856;52.178;21.176;2024-01-30T14:00:31;8.52;54.90
76897;SHT30;65856;52.178;21.176;2024-01-30T14:02:57;8.49;54.85
76897;SHT30;65856;52.178;21.176;2024-01-30T14:05:24;8.48;55.06
76897;SHT30;65856;52.178;21.176;2024-01-30T14:07:50;8.43;55.13
76897;SHT30;65856;52.178;21.176;2024-01-30T14:10:17;8.39;55.22
76897;SHT30;65856;52.178;21.176;2024-01-30T14:12:43;8.36;55.26
76897;SHT30;65856;52.178;21.176;2024-01-30T14:15:09;8.35;55.31
76897;SHT30;65856;52.178;21.176;2024-01-30T14:17:36;8.31;55.42
76897;SHT30;65856;52.178;21.176;2024-01-30T14:20:02;8.27;55.43
76897;SHT30;65856;52.178;21.176;2024-01-30T14:22:29;8.26;55.79
76897;SHT30;65856;52.178;21.176;2024-01-30T14:24:55;8.24;55.87
76897;SHT30;65856;52.178;21.176;2024-01-30T14:27:21;8.21;55.70
76897;SHT30;65856;52.178;21.176;2024-01-30T14:29:47;8.18;55.91
76897;SHT30;65856;52.178;21.176;2024-01-30T14:32:12;8.16;56.17
76897;SHT30;65856;52.178;21.176;2024-01-30T14:34:37;8.11;56.07
76897;SHT30;65856;52.178;21.176;2024-01-30T14:37:04;8.07;56.14
76897;SHT30;65856;52.178;21.176;2024-01-30T14:39:29;8.03;56.41
76897;SHT30;65856;52.178;21.176;2024-01-30T14:41:55;7.99;56.70
76897;SHT30;65856;52.178;21.176;2024-01-30T14:44:20;7.95;56.84
76897;SHT30;65856;52.178;21.176;2024-01-30T14:46:46;7.90;56.98
76897;SHT30;65856;52.178;21.176;2024-01-30T14:49:11;7.85;57.07
76897;SHT30;65856;52.178;21.176;2024-01-30T14:51:37;7.79;57.06
76897;SHT30;65856;52.178;21.176;2024-01-30T14:54:02;7.74;57.20
76897;SHT30;65856;52.178;21.176;2024-01-30T14:56:28;7.70;57.27
76897;SHT30;65856;52.178;21.176;2024-01-30T14:58:54;7.65;57.48
76897;SHT30;65856;52.178;21.176;2024-01-30T15:01:19;7.59;57.62
76897;SHT30;65856;52.178;21.176;2024-01-30T15:03:45;7.54;57.74
76897;SHT30;65856;52.178;21.176;2024-01-30T15:06:12;7.49;57.79
76897;SHT30;65856;52.178;21.176;2024-01-30T15:08:38;7.46;57.86
76897;SHT30;65856;52.178;21.176;2024-01-30T15:11:03;7.41;57.79
76897;SHT30;65856;52.178;21.176;2024-01-30T15:13:30;7.36;57.86
76897;SHT30;65856;52.178;21.176;2024-01-30T15:15:55;7.30;58.04
76897;SHT30;65856;52.178;21.176;2024-01-30T15:18:22;7.24;58.42
76897;SHT30;65856;52.178;21.176;2024-01-30T15:20:47;7.17;58.79
76897;SHT30;65856;52.178;21.176;2024-01-30T15:23:12;7.09;59.14
76897;SHT30;65856;52.178;21.176;2024-01-30T15:25:39;7.03;59.05